createdAt,value
2019-03-12T17:14:08.034Z,17.72
2019-03-12T17:16:37.769Z,20.86
2019-03-12T17:19:07.770Z,22.16
2019-03-12T17:21:37.750Z,22.50
2019-03-12T17:27:31.001Z,23.02
2019-03-12T17:30:00.558Z,22.83
2019-03-12T17:32:30.068Z,22.78
2019-03-12T17:34:59.441Z,22.83
2019-03-12T17:40:52.805Z,22.61
2019-03-12T17:43:22.128Z,16.43
2019-03-12T17:45:51.519Z,13.75
2019-03-12T17:48:20.890Z,11.92
2019-03-12T17:50:55.149Z,10.73
2019-03-12T17:53:27.834Z,10.43
2019-03-12T17:56:00.215Z,10.17
2019-03-12T17:58:29.653Z,9.65
2019-03-12T18:00:59.080Z,9.35
2019-03-12T18:03:28.495Z,9.27
2019-03-12T18:05:57.941Z,9.21
2019-03-12T18:08:27.446Z,9.13
2019-03-12T18:10:57.142Z,9.03
2019-03-12T18:13:28.023Z,9.03
2019-03-12T18:15:57.389Z,8.72
2019-03-12T18:18:26.890Z,8.72
2019-03-12T18:20:56.480Z,8.77
2019-03-12T18:23:26.004Z,8.88
2019-03-12T18:25:55.726Z,8.88
2019-03-12T18:28:25.118Z,8.81
2019-03-12T18:30:54.572Z,8.78
2019-03-12T18:33:24.156Z,8.69
2019-03-12T18:35:53.582Z,8.72
2019-03-12T18:38:23.009Z,8.74
2019-03-12T18:40:52.418Z,8.72
2019-03-12T18:43:21.800Z,8.63
2019-03-12T18:45:51.282Z,8.66
2019-03-12T18:48:20.662Z,8.56
2019-03-12T18:50:50.159Z,8.55
2019-03-12T18:53:19.766Z,8.39
2019-03-12T18:55:59.712Z,8.50
2019-03-12T18:58:29.096Z,8.46
2019-03-12T19:01:00.715Z,8.54
2019-03-12T19:03:30.161Z,8.41
2019-03-12T19:05:59.772Z,8.45
2019-03-12T19:08:29.381Z,8.49
2019-03-12T19:10:58.805Z,8.45
2019-03-12T19:13:28.379Z,8.48
2019-03-12T19:15:57.768Z,8.61
2019-03-12T19:18:27.302Z,8.67
2019-03-12T19:20:56.698Z,8.64
2019-03-12T19:23:26.113Z,8.56
2019-03-12T19:25:56.205Z,8.63
2019-03-12T19:28:25.619Z,8.61
2019-03-12T19:31:05.307Z,8.72
2019-03-12T19:33:34.692Z,8.56
2019-03-12T19:36:04.297Z,8.56
2019-03-12T19:38:33.735Z,8.56
2019-03-12T19:41:03.862Z,8.39
2019-03-12T19:43:33.332Z,8.33
2019-03-12T19:46:02.704Z,8.39
2019-03-12T19:48:32.134Z,8.29
2019-03-12T19:51:01.516Z,8.31
2019-03-12T19:53:30.909Z,8.19
2019-03-12T19:56:00.620Z,8.23
2019-03-12T19:58:30.045Z,8.17
2019-03-12T20:01:00.892Z,8.19
2019-03-12T20:03:30.417Z,8.25
2019-03-12T20:05:59.809Z,8.25
2019-03-12T20:08:29.298Z,8.27
2019-03-12T20:12:00.885Z,8.09
2019-03-12T20:15:29.430Z,8.30
2019-03-12T20:18:47.885Z,8.40
2019-03-12T20:21:48.242Z,8.30
2019-03-12T20:25:16.015Z,8.01
2019-03-12T20:28:28.477Z,8.09
2019-03-12T20:31:34.203Z,8.23
2019-03-12T20:34:53.687Z,8.09
2019-03-12T20:37:59.833Z,8.16
2019-03-12T20:41:09.233Z,8.16
2019-03-12T20:44:18.748Z,8.21
2019-03-12T20:47:43.212Z,8.15
2019-03-12T20:50:48.689Z,8.20
2019-03-12T20:54:16.913Z,8.19
2019-03-12T20:57:38.429Z,8.16
2019-03-12T21:00:44.855Z,8.13
2019-03-12T21:03:53.825Z,8.13
2019-03-12T21:06:50.830Z,8.23
2019-03-12T21:10:22.586Z,8.13
2019-03-12T21:13:31.980Z,8.04
2019-03-12T21:16:51.189Z,8.15
2019-03-12T21:20:21.154Z,8.23
2019-03-12T21:23:42.229Z,8.16
2019-03-12T21:26:52.734Z,8.14
2019-03-12T21:29:45.675Z,8.27
2019-03-12T21:32:16.591Z,8.18
2019-03-12T21:34:46.406Z,8.16
2019-03-12T21:37:16.218Z,8.28
2019-03-12T21:39:55.288Z,8.15
2019-03-12T21:42:16.764Z,8.20
2019-03-12T21:44:46.145Z,8.11
2019-03-12T21:47:15.576Z,8.08
2019-03-12T21:49:45.186Z,8.19
2019-03-12T21:52:14.641Z,8.27
2019-03-12T21:54:44.399Z,8.19
2019-03-12T21:57:13.777Z,8.09
2019-03-12T21:59:43.158Z,8.13
2019-03-12T22:02:12.575Z,8.21
2019-03-12T22:04:41.938Z,8.21
2019-03-12T22:07:11.418Z,8.20
2019-03-12T22:09:40.790Z,8.19
2019-03-12T22:12:10.163Z,8.26
2019-03-12T22:14:39.565Z,8.30
2019-03-12T22:17:09.047Z,8.30
2019-03-12T22:19:38.554Z,8.37
2019-03-12T22:22:30.158Z,8.29
2019-03-12T22:24:59.557Z,8.27
2019-03-12T22:27:28.925Z,8.40
2019-03-12T22:29:58.321Z,8.37
2019-03-12T22:32:27.744Z,8.32
2019-03-12T22:34:57.130Z,8.32
2019-03-12T22:37:26.565Z,8.16
2019-03-12T22:39:55.954Z,8.22
2019-03-12T22:42:25.498Z,8.23
2019-03-12T22:44:55.107Z,8.25
2019-03-12T22:47:24.483Z,8.26
2019-03-12T22:49:54.015Z,8.26
2019-03-12T22:52:23.394Z,8.40
2019-03-12T22:54:52.792Z,8.32
2019-03-12T22:57:22.161Z,8.30
2019-03-12T22:59:51.792Z,8.21
2019-03-12T23:02:21.361Z,8.20
2019-03-12T23:04:50.835Z,8.34
2019-03-12T23:07:20.243Z,8.35
2019-03-12T23:09:49.586Z,8.40
2019-03-12T23:12:19.494Z,8.40
2019-03-12T23:14:48.936Z,8.37
2019-03-12T23:17:18.281Z,8.31
2019-03-12T23:19:48.071Z,8.35
2019-03-12T23:22:17.522Z,8.38
2019-03-12T23:24:46.931Z,8.33
2019-03-12T23:27:16.404Z,8.33
2019-03-12T23:29:45.889Z,8.41
2019-03-12T23:32:16.088Z,8.34
2019-03-12T23:34:45.474Z,8.38
2019-03-12T23:37:15.076Z,8.41
2019-03-12T23:39:44.476Z,8.41
2019-03-12T23:42:29.337Z,8.37
2019-03-12T23:44:58.727Z,8.37
2019-03-12T23:47:28.610Z,8.45
2019-03-12T23:49:58.024Z,8.45
2019-03-12T23:52:27.403Z,8.57
2019-03-12T23:54:56.798Z,8.64
2019-03-12T23:57:26.215Z,8.65
2019-03-12T23:59:55.638Z,8.74
